Time;durP1;ratioP1;P1;durP2;ratioP2;P2;SDS_P1;SDS_P2;PMS_P1;PMS_P2;Temp;Humidity;BMP_temperature;BMP_pressure;BME280_temperature;BME280_humidity;BME280_pressure;Samples;Min_cycle;Max_cycle;Signal;HPM_P1;HPM_P2
2024/01/21 00:01:16;;;;;;;15.13;6.15;;;0.60;65.90;;;;;;5127533;27;20043;-69
2024/01/21 00:03:44;;;;;;;12.75;5.50;;;0.60;66.00;;;;;;5125151;27;20047;-68
2024/01/21 00:06:11;;;;;;;14.23;6.45;;;0.70;65.20;;;;;;5128309;27;20468;-69
2024/01/21 00:08:39;;;;;;;13.93;5.67;;;0.60;65.40;;;;;;5125258;27;20075;-69
2024/01/21 00:11:07;;;;;;;12.15;5.35;;;0.60;65.60;;;;;;5125400;27;20066;-69
2024/01/21 00:13:34;;;;;;;14.48;5.95;;;0.60;65.70;;;;;;5144732;27;20051;-69
2024/01/21 00:16:01;;;;;;;12.68;5.72;;;0.60;65.80;;;;;;5126648;27;20097;-69
2024/01/21 00:18:28;;;;;;;12.45;5.63;;;0.60;66.00;;;;;;5144976;27;20134;-68
2024/01/21 00:20:55;;;;;;;10.77;4.53;;;0.60;66.10;;;;;;5132855;27;20793;-68
2024/01/21 00:23:22;;;;;;;11.70;4.00;;;0.60;66.20;;;;;;5135487;27;20138;-69
2024/01/21 00:25:50;;;;;;;12.57;6.00;;;0.70;65.80;;;;;;5147463;27;20126;-69
2024/01/21 00:28:18;;;;;;;11.95;5.72;;;0.60;65.90;;;;;;5146736;27;20135;-69
2024/01/21 00:30:45;;;;;;;12.65;5.70;;;0.60;65.90;;;;;;5111148;27;20043;-69
2024/01/21 00:33:12;;;;;;;11.33;5.00;;;0.60;65.80;;;;;;5128527;27;20584;-69
2024/01/21 00:35:39;;;;;;;14.90;5.47;;;0.60;66.10;;;;;;5147841;27;20104;-69
2024/01/21 00:38:06;;;;;;;13.05;5.38;;;0.70;65.60;;;;;;5130561;27;20133;-69
2024/01/21 00:40:33;;;;;;;13.70;5.32;;;0.70;65.40;;;;;;5138610;27;20499;-69
2024/01/21 00:43:02;;;;;;;12.10;5.05;;;0.70;64.90;;;;;;5128725;27;20054;-69
2024/01/21 00:45:29;;;;;;;12.10;4.83;;;0.70;65.00;;;;;;5127600;27;20050;-69
2024/01/21 00:47:56;;;;;;;12.82;5.43;;;0.70;65.20;;;;;;5128717;27;20131;-69
2024/01/21 00:50:23;;;;;;;12.48;6.35;;;0.70;65.10;;;;;;5110598;27;20223;-69
2024/01/21 00:52:50;;;;;;;12.98;5.43;;;0.70;65.10;;;;;;5132214;27;20092;-69
2024/01/21 00:55:17;;;;;;;11.52;5.07;;;0.70;64.80;;;;;;5140234;27;20137;-70
2024/01/21 00:57:44;;;;;;;11.03;4.80;;;0.80;64.70;;;;;;5128514;27;20157;-69
2024/01/21 01:00:13;;;;;;;11.90;5.28;;;0.70;64.80;;;;;;5128322;27;20128;-69
2024/01/21 01:02:40;;;;;;;12.32;5.63;;;0.80;64.70;;;;;;5128722;27;20046;-69
2024/01/21 01:05:08;;;;;;;11.88;5.95;;;0.80;64.50;;;;;;5146058;27;20086;-69
2024/01/21 01:07:35;;;;;;;11.93;5.38;;;0.80;64.70;;;;;;5146603;27;20066;-69
2024/01/21 01:10:03;;;;;;;13.90;5.00;;;0.80;64.40;;;;;;5128320;27;20517;-69
2024/01/21 01:12:30;;;;;;;9.68;4.80;;;0.80;64.80;;;;;;5128242;27;20054;-69
2024/01/21 01:14:57;;;;;;;13.75;5.60;;;0.80;64.60;;;;;;5142564;27;20070;-69
2024/01/21 01:17:25;;;;;;;11.65;5.95;;;0.80;64.60;;;;;;5167761;27;20146;-69
2024/01/21 01:19:52;;;;;;;13.05;5.38;;;0.80;64.60;;;;;;5131262;27;20047;-69
2024/01/21 01:22:19;;;;;;;12.83;5.10;;;0.80;64.60;;;;;;5127055;27;20174;-69
2024/01/21 01:24:46;;;;;;;12.25;5.30;;;0.80;64.20;;;;;;5128472;27;20188;-69
2024/01/21 01:27:13;;;;;;;12.07;5.22;;;0.80;64.30;;;;;;5128149;27;20160;-69
2024/01/21 01:29:40;;;;;;;12.30;5.05;;;0.80;63.90;;;;;;5149302;27;20083;-69
2024/01/21 01:32:07;;;;;;;13.15;5.57;;;0.80;64.10;;;;;;5156738;27;20179;-67
2024/01/21 01:34:35;;;;;;;11.07;5.10;;;0.80;63.70;;;;;;5161221;27;20087;-68
2024/01/21 01:37:02;;;;;;;11.48;4.63;;;0.80;63.40;;;;;;5130446;27;20104;-69
2024/01/21 01:39:29;;;;;;;9.00;3.83;;;0.80;63.20;;;;;;5127236;27;20126;-69
2024/01/21 01:41:56;;;;;;;12.07;4.97;;;0.80;62.80;;;;;;5146715;27;20074;-69
2024/01/21 01:44:23;;;;;;;12.32;5.72;;;0.80;63.00;;;;;;5127578;27;20492;-69
2024/01/21 01:46:50;;;;;;;11.37;4.60;;;0.80;63.00;;;;;;5146263;27;20122;-70
2024/01/21 01:49:17;;;;;;;10.95;4.20;;;0.80;62.80;;;;;;5127223;27;21106;-69
2024/01/21 01:51:46;;;;;;;11.35;4.68;;;0.80;63.00;;;;;;5149131;27;20134;-69
2024/01/21 01:54:14;;;;;;;11.32;4.22;;;0.80;62.90;;;;;;5147035;27;20042;-69
2024/01/21 01:56:41;;;;;;;8.00;3.55;;;0.80;63.30;;;;;;5137884;27;20132;-69
2024/01/21 01:59:10;;;;;;;11.50;4.70;;;0.90;63.20;;;;;;5144577;27;20069;-69
2024/01/21 02:01:38;;;;;;;10.55;4.45;;;0.80;63.50;;;;;;5110210;27;20089;-69
2024/01/21 02:04:06;;;;;;;10.93;4.10;;;0.80;63.30;;;;;;5146697;27;20821;-69
2024/01/21 02:06:33;;;;;;;10.20;4.07;;;0.90;63.20;;;;;;5112982;27;20797;-69
2024/01/21 02:09:02;;;;;;;10.90;4.05;;;0.80;62.90;;;;;;5138498;27;20047;-69
2024/01/21 02:11:29;;;;;;;10.23;3.53;;;0.90;62.70;;;;;;5130936;27;20047;-69
2024/01/21 02:13:55;;;;;;;9.68;3.50;;;0.90;62.90;;;;;;5130572;27;20079;-69
2024/01/21 02:16:23;;;;;;;7.57;3.10;;;0.90;63.00;;;;;;5131189;27;20041;-69
2024/01/21 02:18:51;;;;;;;8.43;3.38;;;1.00;62.20;;;;;;5131110;27;20047;-69
2024/01/21 02:21:18;;;;;;;8.15;3.20;;;1.00;61.50;;;;;;5130679;27;20055;-69
2024/01/21 02:23:46;;;;;;;9.03;3.23;;;1.00;61.40;;;;;;5150048;27;20074;-69
2024/01/21 02:26:14;;;;;;;9.82;3.28;;;1.00;61.00;;;;;;5156705;27;20125;-69
2024/01/21 02:28:41;;;;;;;8.38;2.90;;;1.00;61.50;;;;;;5151540;27;20082;-69
2024/01/21 02:31:08;;;;;;;8.85;3.05;;;1.00;61.20;;;;;;5159798;27;20524;-69
2024/01/21 02:33:35;;;;;;;8.77;3.20;;;1.00;61.20;;;;;;5149712;27;20082;-69
2024/01/21 02:36:02;;;;;;;9.67;2.90;;;1.10;60.60;;;;;;5130790;27;20047;-69
2024/01/21 02:38:29;;;;;;;8.63;3.17;;;1.10;59.70;;;;;;5130789;27;20073;-69
2024/01/21 02:40:58;;;;;;;6.50;2.58;;;1.10;60.20;;;;;;5149198;27;20130;-69
2024/01/21 02:43:25;;;;;;;8.40;2.60;;;1.10;60.10;;;;;;5150999;27;20133;-69
2024/01/21 02:45:52;;;;;;;6.60;2.72;;;1.10;60.50;;;;;;5163457;27;20824;-69
2024/01/21 02:48:19;;;;;;;7.53;2.47;;;1.10;60.00;;;;;;5130998;27;20134;-69
2024/01/21 02:50:45;;;;;;;7.97;2.50;;;1.10;60.10;;;;;;5130232;27;20045;-69
2024/01/21 02:53:13;;;;;;;5.90;1.85;;;1.10;60.10;;;;;;5130366;27;20130;-69
2024/01/21 02:55:39;;;;;;;7.50;2.33;;;1.10;59.60;;;;;;5130656;27;20138;-69
2024/01/21 02:58:08;;;;;;;5.97;2.22;;;1.20;60.10;;;;;;5130872;27;21331;-69
2024/01/21 03:00:35;;;;;;;7.50;2.30;;;1.20;59.40;;;;;;5128745;27;20471;-69
2024/01/21 03:03:02;;;;;;;8.45;2.40;;;1.20;58.90;;;;;;5170787;27;20130;-69
2024/01/21 03:05:29;;;;;;;5.63;1.80;;;1.20;59.10;;;;;;5150528;27;20138;-69
2024/01/21 03:07:56;;;;;;;6.63;2.08;;;1.20;58.20;;;;;;5130327;27;20096;-69
2024/01/21 03:10:23;;;;;;;5.55;1.77;;;1.30;58.00;;;;;;5130221;27;20079;-69
2024/01/21 03:12:50;;;;;;;9.37;2.80;;;1.30;58.30;;;;;;5149359;27;20128;-69
2024/01/21 03:15:18;;;;;;;6.15;2.00;;;1.30;57.50;;;;;;5130667;27;20105;-69
2024/01/21 03:17:45;;;;;;;7.15;2.38;;;1.40;57.60;;;;;;5147463;27;20134;-69
2024/01/21 03:20:13;;;;;;;7.32;2.22;;;1.30;57.20;;;;;;5164819;27;20526;-69
2024/01/21 03:22:39;;;;;;;6.60;2.05;;;1.40;57.80;;;;;;5148999;27;20096;-69
2024/01/21 03:25:07;;;;;;;5.67;1.50;;;1.40;57.40;;;;;;5130324;27;20961;-69
2024/01/21 03:27:34;;;;;;;6.68;1.92;;;1.40;57.30;;;;;;5130466;27;20498;-69
2024/01/21 03:30:01;;;;;;;4.65;1.77;;;1.40;57.00;;;;;;5129496;27;20203;-69
2024/01/21 03:32:29;;;;;;;5.68;2.00;;;1.40;57.20;;;;;;5133387;27;20096;-69
2024/01/21 03:34:56;;;;;;;6.00;1.67;;;1.40;56.60;;;;;;5154211;27;20066;-69
2024/01/21 03:37:23;;;;;;;5.50;2.00;;;1.40;57.10;;;;;;5147139;27;20074;-69
2024/01/21 03:39:50;;;;;;;5.65;1.65;;;1.40;57.30;;;;;;5147553;27;20052;-69
2024/01/21 03:42:17;;;;;;;6.40;1.80;;;1.40;57.20;;;;;;5130046;27;20151;-69
2024/01/21 03:44:47;;;;;;;6.47;1.52;;;1.40;57.10;;;;;;5149203;27;20071;-69
2024/01/21 03:47:14;;;;;;;5.93;1.90;;;1.40;57.00;;;;;;5148179;27;20055;-69
2024/01/21 03:49:42;;;;;;;5.20;1.77;;;1.40;56.80;;;;;;5112363;27;20054;-69
2024/01/21 03:52:09;;;;;;;4.80;1.52;;;1.40;56.90;;;;;;5129828;27;20116;-69
2024/01/21 03:54:36;;;;;;;5.35;1.92;;;1.40;55.70;;;;;;5135221;27;20066;-69
2024/01/21 03:57:03;;;;;;;5.43;1.88;;;1.50;55.40;;;;;;5159247;27;20813;-69
2024/01/21 03:59:30;;;;;;;5.80;1.60;;;1.50;55.80;;;;;;5148762;27;20079;-69
2024/01/21 04:01:57;;;;;;;5.20;1.47;;;1.50;55.10;;;;;;5148062;27;20151;-69
2024/01/21 04:04:24;;;;;;;4.70;1.83;;;1.50;55.50;;;;;;5130582;27;20180;-69
2024/01/21 04:06:52;;;;;;;4.38;1.20;;;1.50;54.60;;;;;;5148826;27;20526;-69
2024/01/21 04:09:23;;;;;;;5.50;1.42;;;1.50;55.00;;;;;;5130196;27;20074;-69
2024/01/21 04:11:50;;;;;;;4.97;1.38;;;1.50;54.20;;;;;;5147830;27;20053;-69
2024/01/21 04:14:17;;;;;;;4.87;1.47;;;1.50;54.50;;;;;;5150702;27;20542;-69
2024/01/21 04:16:44;;;;;;;5.35;1.42;;;1.50;54.60;;;;;;5166121;27;20866;-69
2024/01/21 04:19:12;;;;;;;5.55;1.40;;;1.50;54.30;;;;;;5129827;27;20064;-69
2024/01/21 04:21:39;;;;;;;3.90;1.10;;;1.60;54.00;;;;;;5129033;27;20067;-69
2024/01/21 04:24:08;;;;;;;4.72;1.35;;;1.60;53.80;;;;;;5129508;27;20112;-69
2024/01/21 04:26:35;;;;;;;5.03;1.40;;;1.50;53.70;;;;;;5148662;27;20785;-69
2024/01/21 04:29:02;;;;;;;4.25;1.50;;;1.60;53.10;;;;;;5129517;27;20089;-69
2024/01/21 04:31:29;;;;;;;3.85;1.08;;;1.60;53.40;;;;;;5160990;27;20086;-69
2024/01/21 04:33:56;;;;;;;4.63;1.10;;;1.60;53.10;;;;;;5148938;27;20136;-69
2024/01/21 04:36:23;;;;;;;3.83;1.00;;;1.50;53.60;;;;;;5149080;27;20138;-69
2024/01/21 04:38:50;;;;;;;4.57;0.83;;;1.50;53.40;;;;;;5148318;27;20062;-69
2024/01/21 04:41:18;;;;;;;4.95;1.30;;;1.50;53.30;;;;;;5128684;27;20047;-69
2024/01/21 04:43:46;;;;;;;5.22;1.20;;;1.50;53.30;;;;;;5147573;27;20108;-69
2024/01/21 04:46:13;;;;;;;5.50;1.00;;;1.50;53.50;;;;;;5129258;27;20517;-69
2024/01/21 04:48:40;;;;;;;4.82;1.35;;;1.50;52.40;;;;;;5134882;27;20137;-69
2024/01/21 04:51:07;;;;;;;3.50;0.63;;;1.50;53.00;;;;;;5168745;27;20172;-69
2024/01/21 04:53:35;;;;;;;4.07;1.02;;;1.50;52.60;;;;;;5159567;27;20047;-69
2024/01/21 04:56:02;;;;;;;4.28;1.02;;;1.50;52.60;;;;;;5129699;27;20627;-69
2024/01/21 04:58:30;;;;;;;3.92;1.30;;;1.50;52.60;;;;;;5128361;27;20043;-69
2024/01/21 05:00:57;;;;;;;4.28;1.15;;;1.50;52.50;;;;;;5128688;27;20135;-69
2024/01/21 05:03:24;;;;;;;4.00;0.93;;;1.50;52.50;;;;;;5147833;27;20135;-69
2024/01/21 05:05:51;;;;;;;4.88;1.40;;;1.50;52.90;;;;;;5149944;27;20141;-69
2024/01/21 05:08:18;;;;;;;4.82;1.50;;;1.60;52.60;;;;;;5143305;27;20129;-69
2024/01/21 05:10:45;;;;;;;4.10;1.20;;;1.50;52.60;;;;;;5128076;27;20054;-69
2024/01/21 05:13:12;;;;;;;5.35;1.40;;;1.50;52.70;;;;;;5146688;27;20877;-69
2024/01/21 05:15:40;;;;;;;4.93;1.17;;;1.50;52.90;;;;;;5127308;27;20122;-69
2024/01/21 05:18:07;;;;;;;4.82;1.40;;;1.50;52.80;;;;;;5146137;27;20051;-69
2024/01/21 05:20:34;;;;;;;5.22;1.25;;;1.50;52.40;;;;;;5145528;27;20070;-69
2024/01/21 05:23:01;;;;;;;3.67;1.00;;;1.50;52.00;;;;;;5143271;27;20130;-69
2024/01/21 05:25:28;;;;;;;4.70;1.10;;;1.50;52.70;;;;;;5145931;27;20047;-69
2024/01/21 05:27:56;;;;;;;4.40;1.10;;;1.50;52.60;;;;;;5127275;27;20134;-69
2024/01/21 05:30:23;;;;;;;5.63;1.35;;;1.50;52.30;;;;;;5126514;27;20170;-69
2024/01/21 05:32:51;;;;;;;5.45;1.50;;;1.50;52.50;;;;;;5111273;27;20043;-69
2024/01/21 05:35:19;;;;;;;3.08;0.88;;;1.60;52.10;;;;;;5147985;27;20133;-69
2024/01/21 05:37:47;;;;;;;4.57;1.33;;;1.60;51.40;;;;;;5148734;27;20042;-69
2024/01/21 05:40:14;;;;;;;5.43;1.27;;;1.60;51.80;;;;;;5145393;27;20922;-69
2024/01/21 05:42:41;;;;;;;5.28;1.63;;;1.60;51.80;;;;;;5159445;27;20142;-69
2024/01/21 05:45:09;;;;;;;5.78;1.70;;;1.60;51.60;;;;;;5127968;27;20585;-69
2024/01/21 05:47:36;;;;;;;6.75;1.42;;;1.70;51.20;;;;;;5145369;27;20047;-69
2024/01/21 05:50:05;;;;;;;5.97;1.58;;;1.70;51.00;;;;;;5126539;27;20146;-69
2024/01/21 05:52:33;;;;;;;6.53;2.00;;;1.70;51.60;;;;;;5126781;27;20165;-69
2024/01/21 05:55:00;;;;;;;6.95;1.85;;;1.80;51.30;;;;;;5145635;27;20448;-69
2024/01/21 05:57:27;;;;;;;16.50;2.30;;;1.80;51.40;;;;;;5146784;27;20170;-69
2024/01/21 05:59:54;;;;;;;6.72;2.10;;;1.80;51.40;;;;;;5129453;27;20513;-68
2024/01/21 06:02:21;;;;;;;6.78;2.13;;;1.80;51.70;;;;;;5150480;27;20061;-69
2024/01/21 06:04:50;;;;;;;6.77;2.37;;;1.80;51.70;;;;;;5145971;27;20100;-69
2024/01/21 06:07:18;;;;;;;9.40;2.50;;;1.90;51.50;;;;;;5126659;27;20150;-69
2024/01/21 06:09:46;;;;;;;4.38;1.33;;;1.90;51.50;;;;;;5127034;27;20159;-69
2024/01/21 06:12:13;;;;;;;7.07;2.50;;;1.90;51.40;;;;;;5144633;27;20058;-69
2024/01/21 06:14:40;;;;;;;5.70;2.45;;;1.90;51.60;;;;;;5126838;27;20112;-69
2024/01/21 06:17:07;;;;;;;8.37;2.87;;;2.00;51.00;;;;;;5125667;27;20811;-74
2024/01/21 06:19:35;;;;;;;6.45;2.30;;;2.10;51.20;;;;;;5140546;27;20035;-75
2024/01/21 06:22:02;;;;;;;6.47;2.38;;;2.10;51.00;;;;;;5170399;27;20116;-73
2024/01/21 06:24:30;;;;;;;5.20;1.58;;;2.10;51.20;;;;;;5143335;27;20078;-73
2024/01/21 06:26:57;;;;;;;7.97;2.88;;;2.20;51.00;;;;;;5140788;27;20103;-73
2024/01/21 06:29:25;;;;;;;7.90;3.27;;;2.20;50.70;;;;;;5133281;27;20050;-73
2024/01/21 06:31:52;;;;;;;7.45;3.05;;;2.30;50.40;;;;;;5169966;27;20047;-73
2024/01/21 06:34:20;;;;;;;8.05;3.35;;;2.30;50.50;;;;;;5159078;27;20051;-68
2024/01/21 06:36:47;;;;;;;6.53;2.85;;;2.30;50.50;;;;;;5123457;27;21047;-75
2024/01/21 06:39:14;;;;;;;6.53;2.67;;;2.30;50.70;;;;;;5149304;27;20612;-69
2024/01/21 06:41:43;;;;;;;7.47;2.60;;;2.30;51.50;;;;;;5148261;27;20105;-73
2024/01/21 06:44:10;;;;;;;7.32;3.10;;;2.30;51.50;;;;;;5149414;27;20048;-71
2024/01/21 06:46:39;;;;;;;9.15;3.35;;;2.30;51.20;;;;;;5148601;27;20055;-73
2024/01/21 06:49:06;;;;;;;7.80;3.33;;;2.30;51.20;;;;;;5130014;27;20505;-72
2024/01/21 06:51:42;;;;;;;9.05;3.78;;;2.30;51.30;;;;;;5134141;27;20089;-73
2024/01/21 06:54:10;;;;;;;7.67;2.80;;;2.30;51.20;;;;;;5139313;27;20051;-74
2024/01/21 06:56:38;;;;;;;9.13;3.95;;;2.30;51.50;;;;;;5133167;27;20039;-68
2024/01/21 06:59:07;;;;;;;7.30;3.38;;;2.30;51.70;;;;;;5133572;27;20051;-73
2024/01/21 07:01:34;;;;;;;7.90;3.45;;;2.30;51.80;;;;;;5146254;27;20797;-74
2024/01/21 07:04:05;;;;;;;8.40;2.80;;;2.20;51.90;;;;;;5156320;27;20059;-72
2024/01/21 07:06:32;;;;;;;7.27;2.13;;;2.20;52.10;;;;;;5166402;27;20055;-71
2024/01/21 07:08:59;;;;;;;7.60;3.20;;;2.20;52.10;;;;;;5155006;27;20058;-71
2024/01/21 07:11:27;;;;;;;8.50;3.33;;;2.20;52.30;;;;;;5150526;27;20793;-68
2024/01/21 07:13:54;;;;;;;8.23;2.72;;;2.20;52.30;;;;;;5172927;27;20059;-71
2024/01/21 07:16:22;;;;;;;7.93;3.10;;;2.20;52.50;;;;;;5165370;27;20058;-73
2024/01/21 07:18:50;;;;;;;6.93;2.80;;;2.20;52.60;;;;;;5133690;27;20051;-69
2024/01/21 07:21:17;;;;;;;8.90;4.22;;;2.20;52.50;;;;;;5138206;27;20065;-73
2024/01/21 07:23:45;;;;;;;6.43;2.70;;;2.20;52.50;;;;;;5172721;27;20055;-71
2024/01/21 07:26:12;;;;;;;7.68;3.55;;;2.20;52.50;;;;;;5169585;27;21042;-73
2024/01/21 07:28:39;;;;;;;8.20;3.92;;;2.20;52.60;;;;;;5148408;27;20836;-70
2024/01/21 07:31:06;;;;;;;7.83;3.63;;;2.20;52.60;;;;;;5150205;27;20051;-71
2024/01/21 07:33:34;;;;;;;7.90;3.42;;;2.20;52.50;;;;;;5172451;27;20611;-71
2024/01/21 07:36:03;;;;;;;7.95;3.63;;;2.20;53.00;;;;;;5150231;27;20470;-70
2024/01/21 07:38:30;;;;;;;8.15;2.75;;;2.20;53.30;;;;;;5146177;27;20052;-73
2024/01/21 07:40:57;;;;;;;6.05;2.53;;;2.20;53.20;;;;;;5172325;27;20058;-73
2024/01/21 07:43:24;;;;;;;7.57;2.80;;;2.20;53.10;;;;;;5151844;27;20046;-71
2024/01/21 07:45:51;;;;;;;8.45;3.50;;;2.20;53.10;;;;;;5148225;27;20080;-72
2024/01/21 07:48:19;;;;;;;5.25;2.03;;;2.10;53.50;;;;;;5149737;27;20042;-72
2024/01/21 07:50:48;;;;;;;7.35;3.08;;;2.20;53.50;;;;;;5169930;27;20058;-71
2024/01/21 07:53:15;;;;;;;8.88;3.25;;;2.10;53.60;;;;;;5131189;27;20131;-72
2024/01/21 07:55:42;;;;;;;7.50;3.23;;;2.10;53.60;;;;;;5146559;27;20043;-70
2024/01/21 07:58:09;;;;;;;8.35;3.22;;;2.10;53.70;;;;;;5143220;27;20129;-71
2024/01/21 08:00:36;;;;;;;9.32;3.38;;;2.10;53.90;;;;;;5163703;27;20054;-72
2024/01/21 08:03:23;;;;;;;6.82;2.95;;;2.20;54.00;;;;;;5164653;27;20235;-73
2024/01/21 08:05:52;;;;;;;7.78;3.33;;;2.10;54.10;;;;;;5143446;27;20663;-70
2024/01/21 08:08:19;;;;;;;7.37;3.30;;;2.20;54.20;;;;;;5164778;27;20075;-72
2024/01/21 08:10:46;;;;;;;6.10;2.55;;;2.20;53.90;;;;;;5145262;27;20122;-69
2024/01/21 08:13:13;;;;;;;8.05;3.05;;;2.20;54.30;;;;;;5144086;27;20129;-76
2024/01/21 08:15:40;;;;;;;8.63;3.13;;;2.20;54.50;;;;;;5147618;27;20157;-69
2024/01/21 08:18:07;;;;;;;6.32;2.15;;;2.20;54.40;;;;;;5131186;27;20055;-72
2024/01/21 08:20:34;;;;;;;7.90;3.67;;;2.20;54.70;;;;;;5131982;27;20062;-73
2024/01/21 08:23:03;;;;;;;10.07;3.45;;;2.20;55.00;;;;;;5128270;27;20131;-69
2024/01/21 08:25:30;;;;;;;7.63;3.60;;;2.20;54.60;;;;;;5126962;27;20072;-70
2024/01/21 08:27:57;;;;;;;7.97;2.90;;;2.20;54.70;;;;;;5145240;27;20139;-74
2024/01/21 08:30:24;;;;;;;8.45;3.95;;;2.30;54.80;;;;;;5147720;27;20125;-71
2024/01/21 08:32:51;;;;;;;7.73;2.67;;;2.30;54.50;;;;;;5148805;27;20129;-70
2024/01/21 08:35:20;;;;;;;10.93;4.55;;;2.30;54.60;;;;;;5149967;27;20178;-73
2024/01/21 08:37:47;;;;;;;8.65;3.90;;;2.30;54.60;;;;;;5145508;27;20058;-71
2024/01/21 08:40:16;;;;;;;8.45;3.50;;;2.30;54.90;;;;;;5160556;27;20055;-69
2024/01/21 08:42:43;;;;;;;7.32;3.45;;;2.30;54.80;;;;;;5146009;27;20050;-70
2024/01/21 08:45:10;;;;;;;9.63;3.33;;;2.30;55.00;;;;;;5167526;27;20150;-70
2024/01/21 08:47:38;;;;;;;10.15;3.80;;;2.40;55.00;;;;;;5144744;27;20528;-70
2024/01/21 08:50:06;;;;;;;8.88;3.28;;;2.30;55.10;;;;;;5164131;27;20039;-70
2024/01/21 08:52:33;;;;;;;8.10;3.65;;;2.30;55.20;;;;;;5138692;27;20059;-70
2024/01/21 08:55:00;;;;;;;9.80;3.65;;;2.30;55.60;;;;;;5147042;27;20143;-68
2024/01/21 08:57:28;;;;;;;7.57;3.40;;;2.30;55.80;;;;;;5160536;27;20055;-71
2024/01/21 08:59:55;;;;;;;10.68;4.05;;;2.30;55.70;;;;;;5130456;27;20046;-70
2024/01/21 09:02:22;;;;;;;9.05;4.00;;;2.30;56.10;;;;;;5141998;27;20535;-71
2024/01/21 09:04:49;;;;;;;10.05;4.13;;;2.40;56.00;;;;;;5128634;27;20104;-71
2024/01/21 09:07:16;;;;;;;9.20;4.22;;;2.40;56.10;;;;;;5143298;27;20070;-72
2024/01/21 09:09:43;;;;;;;9.50;4.00;;;2.40;56.10;;;;;;5130366;27;20111;-72
2024/01/21 09:12:14;;;;;;;8.52;3.78;;;2.50;56.10;;;;;;5161835;27;20758;-72
2024/01/21 09:14:42;;;;;;;7.78;3.75;;;2.50;56.30;;;;;;5160916;27;20051;-70
2024/01/21 09:17:09;;;;;;;9.10;3.60;;;2.50;56.40;;;;;;5147896;27;20498;-72
2024/01/21 09:19:36;;;;;;;9.73;4.00;;;2.50;56.50;;;;;;5166799;27;20159;-68
2024/01/21 09:22:03;;;;;;;7.90;3.80;;;2.60;56.40;;;;;;5145125;27;20054;-72
2024/01/21 09:24:30;;;;;;;8.52;4.70;;;2.60;56.40;;;;;;5149069;27;20518;-71
2024/01/21 09:26:57;;;;;;;9.68;4.00;;;2.70;56.40;;;;;;5164988;27;20130;-73
2024/01/21 09:29:25;;;;;;;11.98;4.22;;;2.70;56.40;;;;;;5147620;27;20139;-69
2024/01/21 09:31:57;;;;;;;9.07;3.70;;;2.70;56.50;;;;;;5140352;27;20070;-73
2024/01/21 09:34:24;;;;;;;9.87;4.03;;;2.70;56.50;;;;;;5146563;27;20187;-69
2024/01/21 09:36:52;;;;;;;11.20;4.53;;;2.70;56.70;;;;;;5146274;27;20104;-70
2024/01/21 09:39:19;;;;;;;9.00;3.90;;;2.70;56.70;;;;;;5162637;27;20133;-68
2024/01/21 09:41:49;;;;;;;8.25;3.67;;;2.80;56.80;;;;;;5126448;27;20508;-71
2024/01/21 09:44:18;;;;;;;9.60;4.78;;;2.80;57.00;;;;;;5147982;27;20058;-68
2024/01/21 09:46:51;;;;;;;8.37;3.50;;;2.80;57.20;;;;;;5143701;27;20664;-68
2024/01/21 09:49:21;;;;;;;9.52;3.75;;;2.80;57.30;;;;;;5161615;27;20138;-71
2024/01/21 09:51:49;;;;;;;11.48;4.00;;;2.90;57.40;;;;;;5148103;27;20054;-69
2024/01/21 09:54:16;;;;;;;8.55;3.70;;;2.90;57.50;;;;;;5147234;27;20053;-72
2024/01/21 09:56:43;;;;;;;9.20;4.10;;;2.90;57.70;;;;;;5148565;27;20078;-69
2024/01/21 09:59:11;;;;;;;9.37;3.63;;;2.90;58.00;;;;;;5146272;27;21138;-68
2024/01/21 10:01:39;;;;;;;8.43;4.05;;;2.90;58.30;;;;;;5148304;27;20082;-69
2024/01/21 10:04:06;;;;;;;9.57;4.50;;;2.90;58.50;;;;;;5147576;27;20055;-73
2024/01/21 10:06:36;;;;;;;8.07;3.30;;;3.00;58.50;;;;;;5145130;27;20538;-68
2024/01/21 10:09:12;;;;;;;10.65;4.30;;;3.00;58.70;;;;;;5144515;27;20054;-68
2024/01/21 10:11:39;;;;;;;10.37;3.67;;;3.10;58.90;;;;;;5147075;27;20043;-70
2024/01/21 10:14:07;;;;;;;8.73;3.47;;;3.10;59.20;;;;;;5165253;27;20051;-68
2024/01/21 10:16:34;;;;;;;8.65;3.83;;;3.10;59.40;;;;;;5166493;27;20054;-68
2024/01/21 10:19:02;;;;;;;9.35;3.75;;;3.20;59.50;;;;;;5125071;27;20359;-70
2024/01/21 10:21:29;;;;;;;8.32;4.10;;;3.30;59.70;;;;;;5160952;27;20062;-70
2024/01/21 10:23:57;;;;;;;10.10;3.73;;;3.30;60.00;;;;;;5123234;27;20922;-71
2024/01/21 10:26:24;;;;;;;8.90;3.92;;;3.30;60.20;;;;;;5147570;27;20130;-68
2024/01/21 10:28:51;;;;;;;9.43;4.45;;;3.30;60.40;;;;;;5169053;27;20107;-72
2024/01/21 10:31:18;;;;;;;10.45;4.20;;;3.30;60.40;;;;;;5170484;27;20703;-70
2024/01/21 10:33:47;;;;;;;8.02;3.88;;;3.40;60.70;;;;;;5128463;27;20061;-69
2024/01/21 10:36:15;;;;;;;9.80;4.10;;;3.50;61.10;;;;;;5129799;27;20094;-69
2024/01/21 10:38:49;;;;;;;8.55;4.25;;;3.50;61.40;;;;;;5166449;27;20650;-70
2024/01/21 10:41:26;;;;;;;9.85;4.32;;;3.50;61.70;;;;;;5144771;27;20057;-71
2024/01/21 10:43:56;;;;;;;8.75;4.20;;;3.50;62.00;;;;;;5171420;27;20137;-71
2024/01/21 10:46:25;;;;;;;10.00;4.35;;;3.50;62.40;;;;;;5148064;27;20053;-70
2024/01/21 10:48:55;;;;;;;8.60;4.10;;;3.50;62.70;;;;;;5150562;27;20051;-70
2024/01/21 10:51:23;;;;;;;8.23;4.75;;;3.60;63.10;;;;;;5131074;27;20794;-70
2024/01/21 10:53:51;;;;;;;6.90;2.75;;;3.60;63.60;;;;;;5171614;27;20078;-71
2024/01/21 10:56:20;;;;;;;9.90;4.65;;;3.60;64.30;;;;;;5149788;27;20090;-69
2024/01/21 10:58:48;;;;;;;8.35;4.40;;;3.70;64.30;;;;;;5149221;27;20210;-69
2024/01/21 11:01:16;;;;;;;9.10;4.17;;;3.80;64.30;;;;;;5150292;27;20055;-70
2024/01/21 11:03:45;;;;;;;9.23;4.00;;;3.80;64.30;;;;;;5149231;27;20524;-69
2024/01/21 11:06:12;;;;;;;10.05;5.13;;;3.80;64.60;;;;;;5126456;27;20050;-68
2024/01/21 11:08:43;;;;;;;8.18;3.92;;;3.90;64.70;;;;;;5156962;27;20452;-70
2024/01/21 11:11:20;;;;;;;11.13;4.93;;;3.90;64.80;;;;;;5142203;27;20429;-69
2024/01/21 11:13:50;;;;;;;10.47;4.27;;;3.90;64.90;;;;;;5159135;27;20051;-69
2024/01/21 11:16:36;;;;;;;10.38;3.60;;;3.90;65.10;;;;;;5131822;27;20679;-70
2024/01/21 11:19:05;;;;;;;10.75;5.05;;;3.90;65.20;;;;;;5118822;27;20099;-71
2024/01/21 11:21:33;;;;;;;9.45;4.82;;;3.90;65.50;;;;;;5140907;27;20058;-71
2024/01/21 11:24:02;;;;;;;7.68;3.40;;;4.00;65.60;;;;;;5139739;27;20047;-70
2024/01/21 11:26:30;;;;;;;8.63;4.20;;;4.00;65.70;;;;;;5139732;27;20484;-71
2024/01/21 11:29:00;;;;;;;8.90;3.38;;;4.00;65.80;;;;;;5159347;27;20455;-71
2024/01/21 11:31:31;;;;;;;10.20;4.47;;;4.00;66.00;;;;;;5157118;27;20162;-70
2024/01/21 11:34:06;;;;;;;8.75;3.58;;;4.00;66.20;;;;;;5141408;27;20071;-72
2024/01/21 11:36:33;;;;;;;8.80;3.55;;;4.10;66.40;;;;;;5139952;27;20051;-70
2024/01/21 11:39:02;;;;;;;10.53;5.00;;;4.10;66.70;;;;;;5136804;27;20043;-70
2024/01/21 11:41:41;;;;;;;8.77;4.18;;;4.10;66.90;;;;;;5158632;27;20107;-71
2024/01/21 11:44:22;;;;;;;9.48;5.25;;;4.10;67.50;;;;;;5140289;27;21358;-71
2024/01/21 11:46:50;;;;;;;10.02;4.47;;;4.20;67.80;;;;;;5140441;27;20963;-71
2024/01/21 11:49:17;;;;;;;9.85;4.05;;;4.20;68.30;;;;;;5157991;27;20062;-71
2024/01/21 11:51:45;;;;;;;9.77;4.50;;;4.10;68.50;;;;;;5137581;27;20133;-71
2024/01/21 11:54:13;;;;;;;10.13;5.20;;;4.20;69.00;;;;;;5156931;27;20697;-69
2024/01/21 11:56:40;;;;;;;9.55;4.90;;;4.10;69.20;;;;;;5136496;27;20138;-71
2024/01/21 11:59:09;;;;;;;10.25;4.80;;;4.20;69.90;;;;;;5141875;27;20118;-69
2024/01/21 12:01:38;;;;;;;10.38;4.30;;;4.20;70.20;;;;;;5137598;27;20058;-69
2024/01/21 12:04:07;;;;;;;10.33;4.03;;;4.20;70.30;;;;;;5135720;27;20146;-68
2024/01/21 12:06:35;;;;;;;9.52;4.90;;;4.20;70.60;;;;;;5138387;27;20542;-71
2024/01/21 12:09:03;;;;;;;10.10;4.28;;;4.20;71.00;;;;;;5156163;27;20050;-69
2024/01/21 12:11:33;;;;;;;11.68;4.85;;;4.20;71.00;;;;;;5159512;27;20046;-70
2024/01/21 12:14:00;;;;;;;9.88;5.10;;;4.20;71.00;;;;;;5139599;27;20081;-71
2024/01/21 12:16:27;;;;;;;12.30;4.97;;;4.10;71.40;;;;;;5157682;27;20883;-70
2024/01/21 12:18:56;;;;;;;11.20;5.00;;;4.20;71.70;;;;;;5122791;27;20047;-71
2024/01/21 12:21:23;;;;;;;9.20;4.93;;;4.20;71.90;;;;;;5138837;27;20508;-71
2024/01/21 12:23:52;;;;;;;9.88;4.80;;;4.20;72.00;;;;;;5138294;27;20071;-70
2024/01/21 12:26:20;;;;;;;9.35;4.88;;;4.20;72.10;;;;;;5135108;27;20051;-70
2024/01/21 12:28:57;;;;;;;10.23;4.47;;;4.20;72.50;;;;;;5158855;27;20042;-68
2024/01/21 12:31:28;;;;;;;9.52;4.53;;;4.30;72.60;;;;;;5137033;27;20055;-71
2024/01/21 12:33:57;;;;;;;9.98;5.40;;;4.30;72.80;;;;;;5153821;27;20051;-72
2024/01/21 12:36:24;;;;;;;9.50;4.78;;;4.40;73.10;;;;;;5125603;27;20117;-71
2024/01/21 12:38:53;;;;;;;9.27;4.68;;;4.40;73.20;;;;;;5140095;27;20071;-68
2024/01/21 12:41:21;;;;;;;9.73;4.90;;;4.40;73.30;;;;;;5161505;27;20848;-71
2024/01/21 12:43:50;;;;;;;10.65;5.35;;;4.40;73.60;;;;;;5136556;27;20273;-72
2024/01/21 12:46:18;;;;;;;12.90;6.50;;;4.50;73.90;;;;;;5163211;27;20887;-71
2024/01/21 12:48:45;;;;;;;11.02;5.82;;;4.50;74.30;;;;;;5127760;27;20250;-72
2024/01/21 12:51:16;;;;;;;12.77;6.32;;;4.50;74.60;;;;;;5145065;27;20083;-70
2024/01/21 12:53:44;;;;;;;13.10;6.17;;;4.50;74.80;;;;;;5165523;27;20066;-70
2024/01/21 12:56:11;;;;;;;11.00;5.50;;;4.60;75.30;;;;;;5146098;27;20135;-71
2024/01/21 12:58:38;;;;;;;12.73;6.43;;;4.60;75.30;;;;;;5166625;27;20046;-71